岡山空港の過去48時間の天気

岡山空港 (Okayama)

現在時刻: 7/17 18:40 JST (7/17 09:40 UTC) 以下の時間は現地時間です。

過去48時間のMETAR気象情報
時間 風向 風速(m/s) 視程 気温(℃) 湿度(%) 気圧(hPa) 天気現象
17 18:00 南東 2 10km以上 30 70 1011
17 17:00 東南東 2 10km以上 31 70 1011
17 16:00 南東 2 10km以上 33 63 1011
17 15:00 2 10km以上 33 59 1011
17 14:00 不定 2 9000m 33 63 1012
17 13:00 南南東 2 9000m 34 63 1012
17 12:38 3 9000m 34 63 1012
17 12:00 不定 2 9000m 32 67 1013
17 11:00 2 9000m 33 67 1013
17 10:01 2 8000m 32 75 1013
17 10:00 2 8000m 31 75 1013
17 09:00 2 7000m 30 75 1013
17 08:00 不定 1 5000m 28 89 1014 もや 部分霧
17 07:00 不定 1 6000m 27 89 1014 部分霧
17 06:15 静穏 0 5000m 26 89 1014 もや 部分霧
RJOB 170900Z 14003KT 090V160 9999 FEW030 BKN/// 30/24 Q1011
RJOB 170800Z 12004KT 090V160 9999 FEW030 BKN/// 31/25 Q1011
RJOB 170700Z 13004KT 080V160 9999 FEW035 BKN/// 33/25 Q1011
RJOB 170600Z 18003KT 120V280 9999 FEW035 BKN/// 33/24 Q1011
RJOB 170500Z VRB03KT 9000 FEW030 SCT035 BKN/// 33/25 Q1012
RJOB 170400Z 15004KT 060V210 9000 FEW025 SCT035 BKN/// 34/26 Q1012
RJOB 170338Z 10005KT 050V130 9000 FEW020 SCT030 BKN/// 34/26 Q1012 RMK 1CU020 3CU030 A2991
RJOB 170300Z VRB03KT 9000 FEW020 SCT030 BKN/// 32/25 Q1013
RJOB 170200Z 09004KT 050V130 9000 FEW025 SCT/// 33/26 Q1013
RJOB 170101Z 10003KT 030V190 8000 FEW020 BKN/// 32/27 Q1013 RMK 2CU020 A2994
RJOB 170100Z 10003KT 030V190 8000 FEW020 BKN/// 31/26 Q1013
RJOB 170000Z 09003KT 010V150 7000 FEW020 SCT/// 30/25 Q1013
RJOB 162300Z VRB02KT 5000 BR PRFG FEW000 BKN/// 28/26 Q1014
RJOB 162200Z VRB01KT 6000 PRFG FEW000 BKN/// 27/25 Q1014
RJOB 162115Z 00000KT 5000 BR PRFG FEW000 BKN/// 26/24 Q1014 RMK 1ST000 A2995 FG NE-E